Time;durP1;ratioP1;P1;durP2;ratioP2;P2;SDS_P1;SDS_P2;PMS_P1;PMS_P2;Temp;Humidity;BMP_temperature;BMP_pressure;BME280_temperature;BME280_humidity;BME280_pressure;Samples;Min_cycle;Max_cycle;Signal;HPM_P1;HPM_P2
2023/01/26 00:00:33;;;;;;;0.75;0.60;;;25.90;51.60;;;;;;4948358;28;20192;-57
2023/01/26 00:03:05;;;;;;;0.50;0.45;;;26.00;51.10;;;;;;4934342;29;20226;-57
2023/01/26 00:05:39;;;;;;;1.00;0.52;;;26.00;51.10;;;;;;4942127;29;20203;-58
2023/01/26 00:08:11;;;;;;;0.47;0.47;;;26.10;51.20;;;;;;4953470;28;20241;-58
2023/01/26 00:10:48;;;;;;;0.60;0.50;;;26.10;51.20;;;;;;4939350;28;20206;-58
2023/01/26 00:13:21;;;;;;;0.38;0.30;;;26.10;51.20;;;;;;4933672;29;20230;-57
2023/01/26 00:15:52;;;;;;;0.50;0.50;;;26.20;51.20;;;;;;4943574;29;20301;-58
2023/01/26 00:18:24;;;;;;;0.60;0.43;;;26.20;51.20;;;;;;4953068;28;20742;-57
2023/01/26 00:20:59;;;;;;;0.45;0.30;;;26.20;51.00;;;;;;4952830;28;20199;-56
2023/01/26 00:23:30;;;;;;;1.02;0.50;;;26.20;51.00;;;;;;4952225;28;20201;-57
2023/01/26 00:26:01;;;;;;;0.90;0.50;;;26.30;50.90;;;;;;4937165;29;20203;-57
2023/01/26 00:28:32;;;;;;;0.73;0.65;;;26.30;50.90;;;;;;4933839;29;20726;-58
2023/01/26 00:31:06;;;;;;;0.73;0.47;;;26.40;51.00;;;;;;4936706;29;20567;-57
2023/01/26 00:33:38;;;;;;;0.60;0.60;;;26.40;50.90;;;;;;4933920;29;20231;-57
2023/01/26 00:36:10;;;;;;;0.50;0.50;;;26.40;51.00;;;;;;4938745;29;20207;-56
2023/01/26 00:38:40;;;;;;;0.73;0.50;;;26.50;51.00;;;;;;4952804;28;20222;-57
2023/01/26 00:42:05;;;;;;;0.50;0.50;;;26.50;51.60;;;;;;4952256;29;20739;-56
2023/01/26 00:44:04;;;;;;;0.73;0.40;;;26.50;51.00;;;;;;4951894;28;20620;-57
2023/01/26 00:46:34;;;;;;;0.52;0.50;;;26.60;51.00;;;;;;4936948;28;20209;-58
2023/01/26 00:49:07;;;;;;;0.65;0.50;;;26.60;51.00;;;;;;4939232;29;20226;-57
2023/01/26 00:51:38;;;;;;;0.40;0.40;;;26.60;51.00;;;;;;4952685;28;20213;-57
2023/01/26 00:54:08;;;;;;;1.13;0.50;;;26.70;51.10;;;;;;4948378;28;20227;-58
2023/01/26 00:56:39;;;;;;;0.63;0.50;;;26.70;51.10;;;;;;4933115;29;20565;-58
2023/01/26 00:59:10;;;;;;;0.82;0.47;;;26.70;51.00;;;;;;4935102;29;20199;-57
2023/01/26 01:01:40;;;;;;;0.73;0.60;;;26.80;51.00;;;;;;4934508;29;20580;-53
2023/01/26 01:04:13;;;;;;;0.75;0.60;;;26.80;50.90;;;;;;4934401;29;20287;-53
2023/01/26 01:06:44;;;;;;;0.40;0.30;;;26.90;51.10;;;;;;4937258;29;20203;-57
2023/01/26 01:09:15;;;;;;;0.50;0.40;;;26.90;50.40;;;;;;4933254;29;20195;-57
2023/01/26 01:11:45;;;;;;;0.30;0.30;;;26.90;49.90;;;;;;4933632;29;20199;-58
2023/01/26 01:14:16;;;;;;;0.82;0.40;;;27.00;49.70;;;;;;4946772;29;20218;-57
2023/01/26 01:16:47;;;;;;;3.63;0.50;;;27.00;49.80;;;;;;4936061;29;20230;-58
2023/01/26 01:19:20;;;;;;;0.47;0.47;;;27.00;49.90;;;;;;4948992;29;20202;-58
2023/01/26 01:21:51;;;;;;;1.65;0.40;;;27.00;49.90;;;;;;4955838;28;20202;-58
2023/01/26 01:24:22;;;;;;;1.40;0.40;;;27.10;50.00;;;;;;4955902;28;20199;-58
2023/01/26 01:26:53;;;;;;;0.45;0.40;;;27.10;50.00;;;;;;4950708;28;20200;-58
2023/01/26 01:29:23;;;;;;;0.70;0.50;;;27.10;50.10;;;;;;4948930;29;20210;-58
2023/01/26 01:31:55;;;;;;;0.38;0.38;;;27.20;50.20;;;;;;4952780;28;20222;-59
2023/01/26 01:34:27;;;;;;;1.02;0.50;;;27.20;50.20;;;;;;4948283;29;20588;-58
2023/01/26 01:36:58;;;;;;;0.50;0.50;;;27.20;50.10;;;;;;4936349;29;20231;-58
2023/01/26 01:39:29;;;;;;;0.80;0.50;;;27.30;50.10;;;;;;4949122;29;20588;-58
2023/01/26 01:42:00;;;;;;;0.50;0.50;;;27.30;50.00;;;;;;4955817;28;20576;-58
2023/01/26 01:44:30;;;;;;;0.57;0.57;;;27.30;49.90;;;;;;4953946;28;20663;-56
2023/01/26 01:47:04;;;;;;;0.35;0.30;;;27.40;49.90;;;;;;4933422;28;20232;-56
2023/01/26 01:49:41;;;;;;;0.50;0.40;;;27.40;49.80;;;;;;4942893;29;20265;-58
2023/01/26 01:52:16;;;;;;;1.15;0.55;;;27.40;49.80;;;;;;4955958;28;20205;-58
2023/01/26 01:54:50;;;;;;;0.40;0.40;;;27.50;49.80;;;;;;4953668;28;20222;-58
2023/01/26 01:57:26;;;;;;;0.30;0.30;;;27.50;49.80;;;;;;4935875;29;20227;-58
2023/01/26 02:00:01;;;;;;;1.25;0.45;;;27.50;49.90;;;;;;4951448;29;20194;-59
2023/01/26 02:02:32;;;;;;;0.30;0.30;;;27.60;49.80;;;;;;4955620;28;20202;-56
2023/01/26 02:05:28;;;;;;;0.47;0.47;;;27.60;49.90;;;;;;4952000;28;20207;-56
2023/01/26 02:07:59;;;;;;;0.30;0.30;;;27.60;49.90;;;;;;4922043;29;20227;-57
2023/01/26 02:10:31;;;;;;;0.38;0.38;;;27.60;49.90;;;;;;4955081;29;20567;-57
2023/01/26 02:13:03;;;;;;;0.45;0.45;;;27.70;50.00;;;;;;4955302;28;20203;-57
2023/01/26 02:15:34;;;;;;;0.30;0.30;;;27.70;50.00;;;;;;4947430;28;20203;-57
2023/01/26 02:18:09;;;;;;;0.85;0.50;;;27.70;50.60;;;;;;4935823;29;20823;-54
2023/01/26 02:20:46;;;;;;;0.70;0.43;;;27.70;50.00;;;;;;4916962;29;20752;-54
2023/01/26 02:23:29;;;;;;;0.25;0.25;;;27.80;49.90;;;;;;4917696;29;20219;-54
2023/01/26 02:26:13;;;;;;;1.00;0.50;;;27.80;49.70;;;;;;4954495;28;20559;-52
2023/01/26 02:28:45;;;;;;;0.50;0.38;;;27.80;49.70;;;;;;4941702;28;20214;-52
2023/01/26 02:31:16;;;;;;;0.40;0.40;;;27.90;49.60;;;;;;4954525;28;20198;-51
2023/01/26 02:33:47;;;;;;;0.35;0.35;;;27.90;49.50;;;;;;4943894;28;20230;-57
2023/01/26 02:36:22;;;;;;;0.60;0.30;;;27.90;49.50;;;;;;4952457;28;20203;-56
2023/01/26 02:39:01;;;;;;;0.28;0.25;;;27.90;49.50;;;;;;4954367;28;20233;-54
2023/01/26 02:44:20;;;;;;;0.70;0.32;;;28.00;49.60;;;;;;4932054;29;20246;-54
2023/01/26 02:46:51;;;;;;;0.68;0.40;;;28.00;49.70;;;;;;4936837;28;20207;-53
2023/01/26 02:52:08;;;;;;;0.50;0.50;;;28.00;49.50;;;;;;4954570;29;20202;-53
2023/01/26 02:57:27;;;;;;;0.75;0.30;;;28.10;49.50;;;;;;4954363;28;20221;-54
2023/01/26 02:59:58;;;;;;;0.30;0.30;;;28.20;49.40;;;;;;4954467;28;20199;-53
2023/01/26 03:02:29;;;;;;;0.28;0.25;;;28.20;49.30;;;;;;4949377;28;20199;-54
2023/01/26 03:05:00;;;;;;;0.30;0.30;;;28.20;49.20;;;;;;4940007;29;20203;-53
2023/01/26 03:07:30;;;;;;;0.40;0.30;;;28.20;49.20;;;;;;4934423;29;20222;-53
2023/01/26 03:10:01;;;;;;;0.40;0.40;;;28.30;49.10;;;;;;4939085;29;20208;-54
2023/01/26 03:12:34;;;;;;;0.55;0.40;;;28.30;49.00;;;;;;4935105;29;20203;-53
2023/01/26 03:27:25;;;;;;;1.45;0.30;;;28.40;48.90;;;;;;4934303;29;20218;-52
2023/01/26 03:29:04;;;;;;;0.40;0.38;;;28.50;48.80;;;;;;4937613;29;20655;-54
2023/01/26 03:31:35;;;;;;;0.60;0.40;;;28.50;48.70;;;;;;4953949;28;20705;-54
2023/01/26 03:34:05;;;;;;;0.40;0.40;;;28.50;48.70;;;;;;4938680;28;20226;-54
2023/01/26 03:36:36;;;;;;;0.55;0.30;;;28.50;48.80;;;;;;4953530;28;20214;-53
2023/01/26 03:39:08;;;;;;;0.70;0.40;;;28.60;48.90;;;;;;4953515;28;20198;-50
2023/01/26 03:58:19;;;;;;;0.28;0.28;;;28.80;48.30;;;;;;4934435;29;20226;-52
2023/01/26 04:00:53;;;;;;;0.52;0.30;;;28.80;48.20;;;;;;4934081;29;20773;-53
2023/01/26 04:08:57;;;;;;;0.40;0.40;;;28.90;48.10;;;;;;4952740;28;20263;-51
2023/01/26 04:11:27;;;;;;;0.95;0.50;;;28.90;48.00;;;;;;4952774;28;20221;-54
2023/01/26 04:22:20;;;;;;;1.35;0.30;;;29.00;47.90;;;;;;4952835;29;20330;-53
2023/01/26 04:24:50;;;;;;;1.13;0.30;;;29.10;47.80;;;;;;4950112;28;20191;-54
2023/01/26 04:27:21;;;;;;;0.52;0.47;;;29.10;47.60;;;;;;4952716;28;20230;-52
2023/01/26 04:29:52;;;;;;;0.30;0.22;;;29.10;47.40;;;;;;4952777;28;20203;-54
2023/01/26 04:32:25;;;;;;;0.30;0.28;;;29.20;47.40;;;;;;4952919;28;20195;-53
2023/01/26 04:34:56;;;;;;;0.65;0.43;;;29.20;47.20;;;;;;4952482;28;20255;-52
2023/01/26 04:37:27;;;;;;;0.60;0.40;;;29.20;47.10;;;;;;4951576;28;20215;-50
2023/01/26 04:39:58;;;;;;;0.30;0.30;;;29.20;47.10;;;;;;4951412;28;20202;-54
2023/01/26 04:42:28;;;;;;;0.40;0.38;;;29.20;47.20;;;;;;4951497;28;20667;-53
2023/01/26 04:44:59;;;;;;;0.30;0.30;;;29.20;47.30;;;;;;4949899;29;20206;-55
2023/01/26 04:47:32;;;;;;;1.33;0.45;;;29.20;47.40;;;;;;4933177;29;20227;-53
2023/01/26 04:50:02;;;;;;;0.43;0.30;;;29.20;47.50;;;;;;4940175;29;20203;-53
2023/01/26 04:52:33;;;;;;;0.77;0.40;;;29.20;47.40;;;;;;4952765;28;20207;-54
2023/01/26 04:55:04;;;;;;;0.70;0.40;;;29.20;47.30;;;;;;4951414;28;20226;-56
2023/01/26 04:57:34;;;;;;;0.80;0.40;;;29.20;47.20;;;;;;4940778;28;20211;-55
2023/01/26 05:00:05;;;;;;;0.50;0.30;;;29.30;47.10;;;;;;4939282;29;20198;-53
2023/01/26 05:02:39;;;;;;;0.47;0.30;;;29.30;47.10;;;;;;4942951;28;20251;-55
2023/01/26 05:05:10;;;;;;;3.15;0.50;;;29.30;46.90;;;;;;4927886;29;20250;-53
2023/01/26 05:07:41;;;;;;;0.52;0.43;;;29.30;46.90;;;;;;4952308;28;20270;-55
2023/01/26 05:10:12;;;;;;;0.60;0.35;;;29.30;46.80;;;;;;4951809;28;20195;-54
2023/01/26 05:12:46;;;;;;;0.88;0.20;;;29.30;46.50;;;;;;4952219;28;20248;-54
2023/01/26 05:15:17;;;;;;;1.00;0.43;;;29.30;46.50;;;;;;4946484;28;20227;-54
2023/01/26 05:17:49;;;;;;;0.40;0.40;;;29.30;46.60;;;;;;4932797;29;20227;-55
2023/01/26 05:20:20;;;;;;;0.50;0.38;;;29.30;46.80;;;;;;4940219;29;20318;-55
2023/01/26 05:22:51;;;;;;;1.35;0.50;;;29.30;47.00;;;;;;4950563;28;20218;-54
2023/01/26 05:25:22;;;;;;;0.82;0.40;;;29.30;47.10;;;;;;4952428;29;20230;-54
2023/01/26 05:27:53;;;;;;;2.05;0.55;;;29.30;47.10;;;;;;4951696;28;20219;-55
2023/01/26 05:30:24;;;;;;;1.27;0.50;;;29.30;47.20;;;;;;4951680;28;20203;-55
2023/01/26 05:33:01;;;;;;;0.90;0.40;;;29.30;47.10;;;;;;4956910;23;20274;-54
2023/01/26 05:35:32;;;;;;;0.60;0.60;;;29.30;46.90;;;;;;4925487;29;20230;-54
2023/01/26 05:38:02;;;;;;;1.30;0.63;;;29.30;46.70;;;;;;4913294;29;20232;-52
2023/01/26 05:40:33;;;;;;;0.88;0.40;;;29.30;46.50;;;;;;4921774;29;20204;-49
2023/01/26 05:43:04;;;;;;;0.50;0.50;;;29.40;46.40;;;;;;4931272;29;20216;-52
2023/01/26 05:45:34;;;;;;;0.50;0.40;;;29.40;46.40;;;;;;4921248;29;20671;-53
2023/01/26 05:48:12;;;;;;;1.08;0.50;;;29.40;46.30;;;;;;4927884;29;20315;-53
2023/01/26 05:50:50;;;;;;;0.30;0.30;;;29.40;46.30;;;;;;4934239;29;20203;-50
2023/01/26 05:53:21;;;;;;;0.50;0.40;;;29.40;46.40;;;;;;4921828;29;20226;-51
2023/01/26 05:55:51;;;;;;;0.50;0.40;;;29.40;46.50;;;;;;4935863;29;20242;-53
2023/01/26 05:58:22;;;;;;;0.93;0.40;;;29.40;46.50;;;;;;4922073;29;20334;-51
2023/01/26 06:00:53;;;;;;;0.50;0.50;;;29.40;46.50;;;;;;4931842;29;20196;-51
2023/01/26 06:03:25;;;;;;;0.75;0.60;;;29.40;46.40;;;;;;4936082;29;20192;-50
2023/01/26 06:05:56;;;;;;;0.43;0.40;;;29.40;46.50;;;;;;4935734;29;20207;-54
2023/01/26 06:08:27;;;;;;;1.38;0.68;;;29.40;46.50;;;;;;4934960;29;20226;-52
2023/01/26 06:11:02;;;;;;;1.70;0.80;;;29.40;46.60;;;;;;4936176;29;20199;-50
2023/01/26 06:13:33;;;;;;;2.05;1.05;;;29.40;46.60;;;;;;4935194;29;20199;-51
2023/01/26 06:16:06;;;;;;;3.08;1.20;;;29.40;46.40;;;;;;4935026;29;20234;-57
2023/01/26 06:18:51;;;;;;;3.80;1.52;;;29.40;46.30;;;;;;4934062;29;20263;-52
2023/01/26 06:21:26;;;;;;;8.85;2.95;;;29.40;46.10;;;;;;4935754;29;20195;-55
2023/01/26 06:24:00;;;;;;;8.75;3.03;;;29.40;46.10;;;;;;4934694;29;20651;-50
2023/01/26 06:26:32;;;;;;;6.82;2.90;;;29.40;46.20;;;;;;4934935;29;21385;-55
2023/01/26 06:29:03;;;;;;;6.63;2.72;;;29.40;46.10;;;;;;4934996;29;20247;-55
2023/01/26 06:31:34;;;;;;;10.18;3.30;;;29.40;46.10;;;;;;4935070;29;20200;-56
2023/01/26 06:34:06;;;;;;;12.50;4.55;;;29.40;46.20;;;;;;4935819;28;20556;-54
2023/01/26 06:36:38;;;;;;;10.95;4.40;;;29.40;46.30;;;;;;4948011;28;20231;-52
2023/01/26 06:39:11;;;;;;;9.70;3.92;;;29.40;46.30;;;;;;4953574;28;20199;-55
2023/01/26 06:41:43;;;;;;;12.07;4.68;;;29.40;46.20;;;;;;4954178;28;20633;-51
2023/01/26 06:44:14;;;;;;;10.07;4.97;;;29.40;46.20;;;;;;4954365;28;20203;-56
2023/01/26 06:46:45;;;;;;;9.07;4.18;;;29.40;46.10;;;;;;4938018;28;20203;-54
2023/01/26 06:49:17;;;;;;;12.57;5.07;;;29.40;46.00;;;;;;4935554;29;20206;-55
2023/01/26 06:52:04;;;;;;;9.77;4.82;;;29.40;46.10;;;;;;4934990;29;20191;-51
2023/01/26 06:54:35;;;;;;;11.93;5.47;;;29.40;46.20;;;;;;4934938;29;20203;-51
2023/01/26 06:57:06;;;;;;;11.00;4.95;;;29.40;46.20;;;;;;4934017;29;20230;-48
2023/01/26 06:59:36;;;;;;;12.32;4.95;;;29.40;46.20;;;;;;4934398;29;20195;-55
2023/01/26 07:02:08;;;;;;;13.98;5.50;;;29.40;46.20;;;;;;4933985;29;20199;-54
2023/01/26 07:04:40;;;;;;;14.02;4.93;;;29.40;46.20;;;;;;4935024;29;20211;-53
2023/01/26 07:07:11;;;;;;;9.02;4.65;;;29.30;46.10;;;;;;4934738;28;20220;-55
2023/01/26 07:09:42;;;;;;;10.00;5.13;;;29.40;46.20;;;;;;4934245;29;20199;-53
2023/01/26 07:12:13;;;;;;;14.20;5.38;;;29.30;46.10;;;;;;4934865;29;20207;-54
2023/01/26 07:14:43;;;;;;;10.43;5.15;;;29.30;46.10;;;;;;4934805;29;20199;-55
2023/01/26 07:17:14;;;;;;;10.93;5.07;;;29.30;45.80;;;;;;4934621;29;20324;-53
2023/01/26 07:19:47;;;;;;;10.20;4.95;;;29.30;45.70;;;;;;4934752;29;20203;-54
2023/01/26 07:22:17;;;;;;;9.23;4.60;;;29.30;45.60;;;;;;4934273;29;20195;-51
2023/01/26 07:24:48;;;;;;;10.70;4.85;;;29.30;45.60;;;;;;4934797;29;20290;-51
2023/01/26 07:27:19;;;;;;;13.75;5.47;;;29.30;45.50;;;;;;4934349;29;20235;-51
2023/01/26 07:29:50;;;;;;;9.35;4.93;;;29.30;45.50;;;;;;4934291;29;20214;-57
2023/01/26 07:32:21;;;;;;;11.25;4.95;;;29.20;45.40;;;;;;4935021;29;20219;-56
2023/01/26 07:34:53;;;;;;;9.23;4.95;;;29.20;45.30;;;;;;4936911;29;20235;-55
2023/01/26 07:37:24;;;;;;;11.20;4.93;;;29.20;45.30;;;;;;4934296;29;20583;-50
2023/01/26 07:39:54;;;;;;;10.88;4.82;;;29.20;45.30;;;;;;4934795;29;20246;-52
2023/01/26 07:42:25;;;;;;;10.57;4.25;;;29.20;45.40;;;;;;4934383;29;20211;-54
2023/01/26 07:44:56;;;;;;;9.68;4.72;;;29.20;45.40;;;;;;4934358;29;20203;-56
2023/01/26 07:47:27;;;;;;;9.38;4.38;;;29.20;45.40;;;;;;4934478;29;20220;-53
2023/01/26 07:49:59;;;;;;;12.18;5.00;;;29.20;45.50;;;;;;4934418;29;20597;-52
2023/01/26 07:52:30;;;;;;;7.75;4.10;;;29.10;45.40;;;;;;4933176;29;20215;-53
2023/01/26 07:55:00;;;;;;;8.40;4.10;;;29.10;45.40;;;;;;4933535;29;20203;-56
2023/01/26 07:57:33;;;;;;;8.90;4.47;;;29.10;45.40;;;;;;4933610;29;20711;-56
2023/01/26 08:00:04;;;;;;;9.90;4.32;;;29.10;45.30;;;;;;4934011;29;20238;-53
2023/01/26 08:02:34;;;;;;;6.93;4.07;;;29.10;45.30;;;;;;4934079;29;20584;-54
2023/01/26 08:05:07;;;;;;;8.07;4.10;;;29.10;45.10;;;;;;4933933;29;20199;-54
2023/01/26 08:07:38;;;;;;;9.55;4.30;;;29.10;45.10;;;;;;4933555;29;20230;-55
2023/01/26 08:10:11;;;;;;;8.10;4.22;;;29.00;45.00;;;;;;4933786;29;20570;-52
2023/01/26 08:12:41;;;;;;;7.75;4.00;;;29.00;45.00;;;;;;4933704;29;20196;-53
2023/01/26 08:15:13;;;;;;;7.53;3.72;;;29.00;45.00;;;;;;4933662;29;20231;-57
2023/01/26 08:17:44;;;;;;;7.68;4.03;;;28.90;45.00;;;;;;4933443;29;20220;-55
2023/01/26 08:20:16;;;;;;;7.28;3.83;;;28.90;45.00;;;;;;4933907;29;20210;-56
2023/01/26 08:22:47;;;;;;;8.43;4.03;;;28.90;45.00;;;;;;4935967;29;20202;-53
2023/01/26 08:25:18;;;;;;;7.53;3.90;;;28.90;45.00;;;;;;4934020;29;20199;-53
2023/01/26 08:27:49;;;;;;;6.35;3.72;;;28.90;45.10;;;;;;4933711;29;20226;-53
2023/01/26 08:30:20;;;;;;;8.25;3.80;;;28.90;45.10;;;;;;4933270;29;20603;-54
2023/01/26 08:32:50;;;;;;;6.68;3.47;;;28.80;45.10;;;;;;4933188;29;20211;-56
2023/01/26 08:35:23;;;;;;;7.30;3.55;;;28.90;45.20;;;;;;4932377;29;20743;-55
2023/01/26 08:37:54;;;;;;;6.15;3.58;;;28.90;45.10;;;;;;4933120;29;20223;-52
2023/01/26 08:40:24;;;;;;;5.97;2.50;;;28.80;44.90;;;;;;4951354;29;20710;-54
2023/01/26 08:42:55;;;;;;;3.95;2.60;;;28.80;44.40;;;;;;4952078;28;20265;-54
2023/01/26 08:45:26;;;;;;;4.53;2.38;;;28.70;44.30;;;;;;4945268;28;20266;-54
2023/01/26 08:47:57;;;;;;;4.72;2.90;;;28.70;44.20;;;;;;4932651;29;20220;-54
2023/01/26 08:50:30;;;;;;;4.97;2.70;;;28.70;44.10;;;;;;4933725;29;20694;-53
2023/01/26 08:53:00;;;;;;;6.25;2.50;;;28.60;44.00;;;;;;4932933;29;20284;-53
2023/01/26 08:55:31;;;;;;;5.45;2.53;;;28.60;44.10;;;;;;4933553;29;20307;-54
2023/01/26 08:58:02;;;;;;;6.68;2.78;;;28.50;44.80;;;;;;4933442;29;20695;-56
2023/01/26 09:00:33;;;;;;;5.30;2.55;;;28.50;44.30;;;;;;4933428;29;20200;-53
2023/01/26 09:03:04;;;;;;;5.00;2.70;;;28.50;44.40;;;;;;4933170;29;20219;-51
2023/01/26 09:05:38;;;;;;;4.00;2.50;;;28.50;44.50;;;;;;4933360;29;20191;-53
2023/01/26 09:08:10;;;;;;;4.93;3.00;;;28.50;44.60;;;;;;4933478;29;20219;-56
2023/01/26 09:10:43;;;;;;;4.63;2.38;;;28.40;44.60;;;;;;4926497;29;20184;-51
2023/01/26 09:13:14;;;;;;;4.15;2.70;;;28.40;44.60;;;;;;4932266;29;20204;-55
2023/01/26 09:15:45;;;;;;;3.55;2.20;;;28.40;44.70;;;;;;4932251;29;20711;-54
2023/01/26 09:18:15;;;;;;;3.95;2.38;;;28.40;44.60;;;;;;4932331;29;20215;-52
2023/01/26 09:20:48;;;;;;;4.53;2.42;;;28.40;44.70;;;;;;4932804;29;20707;-54
2023/01/26 09:23:19;;;;;;;3.92;2.20;;;28.40;44.70;;;;;;4932405;29;20200;-49
2023/01/26 09:25:55;;;;;;;4.65;2.28;;;28.30;44.70;;;;;;4935378;29;20242;-53
2023/01/26 09:28:26;;;;;;;7.05;2.58;;;28.30;44.70;;;;;;4936105;29;20211;-54
2023/01/26 09:30:56;;;;;;;4.05;2.58;;;28.30;44.70;;;;;;4949673;29;20678;-55
2023/01/26 09:33:27;;;;;;;4.28;2.20;;;28.30;44.70;;;;;;4955805;28;20207;-55
2023/01/26 09:36:04;;;;;;;4.25;2.22;;;28.20;45.00;;;;;;4955128;28;20895;-56
2023/01/26 09:38:35;;;;;;;3.90;2.05;;;28.20;44.80;;;;;;4954955;28;20698;-55
2023/01/26 09:41:09;;;;;;;3.08;2.20;;;28.20;44.80;;;;;;4954605;28;20194;-54
2023/01/26 09:43:44;;;;;;;3.40;2.25;;;28.20;44.80;;;;;;4943688;28;20206;-54
2023/01/26 09:46:24;;;;;;;3.80;1.92;;;28.20;44.90;;;;;;4938706;29;20211;-53
2023/01/26 09:49:05;;;;;;;3.58;2.28;;;28.20;44.90;;;;;;4936470;29;20226;-56
2023/01/26 09:51:40;;;;;;;4.15;2.20;;;28.10;44.90;;;;;;4936051;29;20200;-53
2023/01/26 09:54:26;;;;;;;4.97;2.35;;;28.10;44.90;;;;;;4935449;29;20206;-52
2023/01/26 09:56:57;;;;;;;5.38;2.38;;;28.10;44.90;;;;;;4916937;29;20700;-55
2023/01/26 09:59:36;;;;;;;3.45;2.33;;;28.10;45.00;;;;;;4916582;29;20208;-56
2023/01/26 10:02:19;;;;;;;4.82;2.10;;;28.10;44.90;;;;;;4915303;29;20200;-56
2023/01/26 10:04:54;;;;;;;4.18;2.40;;;28.10;44.90;;;;;;4921944;29;20210;-55
2023/01/26 10:07:26;;;;;;;4.13;2.03;;;28.00;44.80;;;;;;4916605;29;20233;-55
2023/01/26 10:09:57;;;;;;;3.30;2.20;;;28.00;44.90;;;;;;4920102;29;20211;-56
2023/01/26 10:12:32;;;;;;;4.38;2.20;;;28.00;44.90;;;;;;4935400;29;20195;-55
2023/01/26 10:15:07;;;;;;;4.50;2.10;;;27.90;44.90;;;;;;4936366;29;20195;-53
2023/01/26 10:17:40;;;;;;;2.90;1.90;;;27.90;44.90;;;;;;4936760;28;20226;-55
2023/01/26 10:20:24;;;;;;;2.53;1.80;;;27.90;45.00;;;;;;4939912;29;20202;-54
2023/01/26 10:23:00;;;;;;;3.13;2.10;;;27.90;45.00;;;;;;4954799;28;20693;-52
2023/01/26 10:25:35;;;;;;;3.47;1.92;;;27.80;45.00;;;;;;4954703;28;20197;-50
2023/01/26 10:28:15;;;;;;;3.47;2.03;;;27.80;45.00;;;;;;4955297;28;20226;-53
2023/01/26 10:30:47;;;;;;;3.03;1.98;;;27.80;45.10;;;;;;4954183;28;20566;-53
2023/01/26 10:33:20;;;;;;;3.13;2.03;;;27.80;45.10;;;;;;4955504;28;20203;-50
2023/01/26 10:35:51;;;;;;;2.38;1.90;;;27.80;45.10;;;;;;4953923;28;20191;-52
2023/01/26 10:38:42;;;;;;;2.80;2.03;;;27.80;45.10;;;;;;4954322;28;21002;-52
2023/01/26 10:41:26;;;;;;;2.58;1.80;;;27.70;45.00;;;;;;4954040;28;20203;-53
2023/01/26 10:43:58;;;;;;;3.92;2.17;;;27.70;45.60;;;;;;4950822;28;20209;-51
2023/01/26 10:46:32;;;;;;;3.15;2.10;;;27.70;45.00;;;;;;4929637;29;20243;-52
2023/01/26 10:49:03;;;;;;;2.60;2.05;;;27.70;45.00;;;;;;4933963;29;20730;-50
2023/01/26 10:51:35;;;;;;;2.60;1.70;;;27.60;45.00;;;;;;4934596;29;20203;-53
2023/01/26 10:54:24;;;;;;;2.90;1.60;;;27.60;45.00;;;;;;4934635;29;20211;-54
2023/01/26 10:56:57;;;;;;;2.78;1.73;;;27.60;45.10;;;;;;4934486;29;20224;-53
2023/01/26 10:59:34;;;;;;;2.33;1.90;;;27.60;45.20;;;;;;4935532;29;20203;-52
2023/01/26 11:02:21;;;;;;;3.10;1.88;;;27.60;45.20;;;;;;4922376;29;20199;-57
2023/01/26 11:05:22;;;;;;;2.72;1.75;;;27.50;45.20;;;;;;4916205;29;20219;-54
2023/01/26 11:07:58;;;;;;;2.47;1.58;;;27.50;45.30;;;;;;4915909;29;20224;-50
2023/01/26 11:10:33;;;;;;;2.38;1.70;;;27.50;45.20;;;;;;4916480;29;20632;-50
2023/01/26 11:13:24;;;;;;;2.83;1.77;;;27.50;45.30;;;;;;4929407;29;20203;-54
2023/01/26 11:16:07;;;;;;;1.92;1.70;;;27.50;45.30;;;;;;4934412;29;20200;-53
2023/01/26 11:18:47;;;;;;;2.47;1.75;;;27.40;45.20;;;;;;4934753;29;20230;-53
2023/01/26 11:21:21;;;;;;;1.50;1.33;;;27.40;45.20;;;;;;4934753;29;20199;-51
2023/01/26 11:24:06;;;;;;;2.70;1.73;;;27.40;45.20;;;;;;4934536;29;20231;-53
2023/01/26 11:27:07;;;;;;;2.17;1.65;;;27.40;45.20;;;;;;4934667;29;20552;-51
2023/01/26 11:30:08;;;;;;;2.42;1.92;;;27.30;45.20;;;;;;4934931;29;20199;-50
2023/01/26 11:32:47;;;;;;;2.28;1.60;;;27.30;45.10;;;;;;4935342;29;20219;-50
2023/01/26 11:35:28;;;;;;;1.70;1.60;;;27.30;45.20;;;;;;4935015;29;20200;-55
2023/01/26 11:38:10;;;;;;;1.45;1.35;;;27.20;45.20;;;;;;4934574;29;20242;-55
2023/01/26 11:40:48;;;;;;;1.55;1.33;;;27.20;45.30;;;;;;4934758;29;20234;-53
2023/01/26 11:43:51;;;;;;;3.28;1.60;;;27.20;45.30;;;;;;4937105;29;20194;-54
2023/01/26 11:46:49;;;;;;;3.20;1.80;;;27.20;45.40;;;;;;4934654;29;20218;-52
2023/01/26 11:49:34;;;;;;;1.85;1.63;;;27.20;45.40;;;;;;4932501;29;20200;-54
2023/01/26 11:52:13;;;;;;;3.03;1.60;;;27.20;45.40;;;;;;4934306;29;20433;-54
2023/01/26 11:55:00;;;;;;;2.45;1.65;;;27.10;45.50;;;;;;4934462;29;20686;-54
2023/01/26 11:57:38;;;;;;;2.05;1.60;;;27.10;45.30;;;;;;4933940;29;20239;-52
2023/01/26 12:00:18;;;;;;;2.67;1.60;;;27.10;45.30;;;;;;4934040;29;20208;-50
2023/01/26 12:02:55;;;;;;;2.63;1.65;;;27.10;45.30;;;;;;4934444;29;20207;-49
2023/01/26 12:05:30;;;;;;;1.80;1.65;;;27.00;45.20;;;;;;4934317;29;20225;-51
2023/01/26 12:08:05;;;;;;;2.88;1.70;;;27.00;45.20;;;;;;4933874;29;20223;-50
2023/01/26 12:10:40;;;;;;;1.92;1.40;;;27.00;45.20;;;;;;4934133;29;20211;-53
2023/01/26 12:13:19;;;;;;;1.85;1.30;;;27.00;45.20;;;;;;4934397;29;20206;-54
2023/01/26 12:15:58;;;;;;;2.35;1.30;;;26.90;45.20;;;;;;4934064;29;20250;-54
2023/01/26 12:18:37;;;;;;;1.33;1.13;;;26.90;45.30;;;;;;4934077;29;20238;-53
2023/01/26 12:21:11;;;;;;;1.60;1.30;;;26.90;45.40;;;;;;4934133;29;20219;-54
2023/01/26 12:23:51;;;;;;;1.50;1.40;;;26.90;45.40;;;;;;4935607;29;20195;-52
2023/01/26 12:26:24;;;;;;;2.55;1.55;;;26.90;45.40;;;;;;4914746;29;20208;-55
2023/01/26 12:29:06;;;;;;;1.65;1.40;;;26.80;45.40;;;;;;4915244;29;20592;-53
2023/01/26 12:31:43;;;;;;;2.63;1.45;;;26.80;45.30;;;;;;4915277;29;20243;-54
2023/01/26 12:34:15;;;;;;;1.63;1.23;;;26.80;45.40;;;;;;4915606;29;20298;-50
2023/01/26 12:36:53;;;;;;;1.80;1.52;;;26.80;45.40;;;;;;4914993;29;20224;-54
2023/01/26 12:39:31;;;;;;;1.42;1.30;;;26.80;45.40;;;;;;4914961;29;20568;-54
2023/01/26 12:42:17;;;;;;;2.33;1.60;;;26.80;45.40;;;;;;4933560;29;20203;-55
2023/01/26 12:44:52;;;;;;;2.30;1.38;;;26.70;45.30;;;;;;4933520;29;20208;-53
2023/01/26 12:47:30;;;;;;;1.50;1.40;;;26.70;45.30;;;;;;4933393;29;20222;-56
2023/01/26 12:50:04;;;;;;;1.95;1.38;;;26.70;45.30;;;;;;4933453;29;20203;-57
2023/01/26 12:52:41;;;;;;;2.08;1.70;;;26.70;45.40;;;;;;4933728;29;20656;-50
2023/01/26 12:55:18;;;;;;;2.00;1.30;;;26.60;45.40;;;;;;4933696;29;20574;-51
2023/01/26 12:57:53;;;;;;;2.17;1.50;;;26.60;45.40;;;;;;4933365;29;20898;-56
2023/01/26 13:00:27;;;;;;;1.42;1.33;;;26.60;45.50;;;;;;4934895;29;20202;-56
2023/01/26 13:03:02;;;;;;;3.25;1.40;;;26.60;45.50;;;;;;4937762;29;20286;-56
2023/01/26 13:05:35;;;;;;;1.42;1.30;;;26.60;45.50;;;;;;4937586;29;20205;-52
2023/01/26 13:08:52;;;;;;;1.80;1.20;;;26.50;45.40;;;;;;4937361;29;20243;-55
2023/01/26 13:11:45;;;;;;;2.03;1.30;;;26.50;45.40;;;;;;4920103;29;20210;-54
2023/01/26 13:14:39;;;;;;;2.17;1.35;;;26.50;45.40;;;;;;4937212;29;20199;-57
2023/01/26 13:17:53;;;;;;;2.55;1.40;;;26.50;45.50;;;;;;4937314;29;20231;-53
2023/01/26 13:20:55;;;;;;;2.05;1.20;;;26.50;45.50;;;;;;4937482;29;20266;-55
2023/01/26 13:23:44;;;;;;;1.67;1.20;;;26.50;45.50;;;;;;4935202;29;20203;-58
2023/01/26 13:26:25;;;;;;;1.95;1.40;;;26.40;45.40;;;;;;4937316;29;20212;-57
2023/01/26 13:29:35;;;;;;;2.63;1.55;;;26.40;45.40;;;;;;4937168;29;20294;-49
2023/01/26 13:32:37;;;;;;;2.05;1.40;;;26.40;45.50;;;;;;4937128;29;20211;-52
2023/01/26 13:35:14;;;;;;;2.13;1.35;;;26.30;45.50;;;;;;4937059;29;20210;-53
2023/01/26 13:37:51;;;;;;;1.23;1.10;;;26.30;45.50;;;;;;4936852;29;20307;-51
2023/01/26 13:40:26;;;;;;;1.83;1.58;;;26.30;45.60;;;;;;4939573;29;20218;-56
2023/01/26 13:43:03;;;;;;;1.35;1.20;;;26.30;45.60;;;;;;4937019;29;20210;-56
2023/01/26 13:45:40;;;;;;;1.35;1.13;;;26.30;45.70;;;;;;4936915;29;20203;-55
2023/01/26 13:48:17;;;;;;;1.13;1.02;;;26.30;45.70;;;;;;4936868;29;20226;-56
2023/01/26 13:50:51;;;;;;;1.58;1.23;;;26.20;45.60;;;;;;4936818;29;20199;-53
2023/01/26 13:53:37;;;;;;;1.20;1.10;;;26.20;45.60;;;;;;4936649;29;20199;-54
2023/01/26 13:56:21;;;;;;;1.52;1.42;;;26.20;45.60;;;;;;4936690;29;20210;-57
2023/01/26 13:58:51;;;;;;;1.75;1.60;;;26.20;45.60;;;;;;4936199;29;20231;-53
2023/01/26 14:01:23;;;;;;;1.50;1.40;;;26.20;45.60;;;;;;4936543;29;20196;-58
2023/01/26 14:04:05;;;;;;;1.40;1.30;;;26.20;45.60;;;;;;4936924;29;20251;-55
2023/01/26 14:06:38;;;;;;;1.60;1.20;;;26.10;45.60;;;;;;4936624;29;20839;-57
2023/01/26 14:09:15;;;;;;;2.03;1.38;;;26.10;45.60;;;;;;4936512;29;20566;-57
2023/01/26 14:11:47;;;;;;;1.17;1.08;;;26.10;45.60;;;;;;4935884;29;20243;-57
2023/01/26 14:14:26;;;;;;;1.35;1.20;;;26.10;45.60;;;;;;4936218;29;20195;-55